Aeroporto :
LOGIN :

Iscrizione | Disclaimer

   EN    FR    IT 

 










Sommario :    VFR   VFR Marginale   IFR   IFR Intensivo   IFR Molto Intensivo
Visibilità : 
Base nubi : 
>= 8 km
>= 3000ft
5 / 8 km
1000 / 3000 ft
1500m / 5 km
500 / 1000 ft
800 / 1500m
200 / 500 ft
< 800m
< 200 ft
Simboli :   Temporali  Nebbia  Neve Forte  Precipitazioni Forti  Vento > 20 kt
SIGMETs :   Varie  Temporali  Ghiacco  Turbolenza  Onda orograficha  Ceneri Vulcaniche







- Altitudine del aeroporto : 1084 ft
- Codice IATA : EPL
- Carte del aeroporto


LFSG - Épinal-Mirecourt

ULTIMO METAR :
  • 211930Z AUTO 00000KT CAVOK 18/09 Q1014

METARs OBSOLETI :
  • 211900Z AUTO 02004KT CAVOK 18/09 Q1014
  • 211830Z AUTO 06004KT 8000 NSC 19/10 Q1014
  • 211800Z AUTO 06008KT 5000 HZ NSC 21/10 Q1014
  • 211730Z AUTO 15003KT CAVOK 24/11 Q1013
  • 211700Z AUTO 17004KT CAVOK 25/11 Q1013

TAF N/A
Nessun NOTAM noto per questo aeroporto.



MetMap, La meteo Aeronautica in un colpo d'occhio ! - Copyright ORBIFLY Dicembre 2007 - Disclaimer

ORBIFLY MET'MAP TEAM :

Programmazione e sviluppo : Alexandra Zaïnal
Concezione e sviluppo : Baudouin d'Aumeries
Co-Programmazione e sviluppo : Marc-Olivier Méhu
Supporto tecnico e logistico : Manuel Goepfert
Aiuto per la traduzione : Arnaldo La Scala

Contatto : metmap@orbifly.com




FONTI E CREDITI :

   NOAA